sensor_id;sensor_type;location;lat;lon;timestamp;noise_LAeq;noise_LA_min;noise_LA_max;noise_LA01;noise_LA95
67398;Laerm;57728;50.448;18.824;2023-12-22T00:00:30;58.69;35.38;85.89;;
67398;Laerm;57728;50.448;18.824;2023-12-22T00:02:32;60.43;35.69;82.76;;
67398;Laerm;57728;50.448;18.824;2023-12-22T00:04:34;61.69;36.09;83.93;;
67398;Laerm;57728;50.448;18.824;2023-12-22T00:06:35;67.20;36.98;90.15;;
67398;Laerm;57728;50.448;18.824;2023-12-22T00:08:36;64.82;36.34;91.48;;
67398;Laerm;57728;50.448;18.824;2023-12-22T00:10:38;54.53;35.01;76.44;;
67398;Laerm;57728;50.448;18.824;2023-12-22T00:12:39;61.64;35.37;89.47;;
67398;Laerm;57728;50.448;18.824;2023-12-22T00:14:41;63.31;35.44;86.21;;
67398;Laerm;57728;50.448;18.824;2023-12-22T00:16:43;61.52;35.64;87.03;;
67398;Laerm;57728;50.448;18.824;2023-12-22T00:18:44;70.20;35.74;94.50;;
67398;Laerm;57728;50.448;18.824;2023-12-22T00:20:46;65.51;35.97;86.28;;
67398;Laerm;57728;50.448;18.824;2023-12-22T00:22:48;61.70;36.09;88.95;;
67398;Laerm;57728;50.448;18.824;2023-12-22T00:24:49;69.25;35.86;89.60;;
67398;Laerm;57728;50.448;18.824;2023-12-22T00:26:50;57.75;35.68;82.76;;
67398;Laerm;57728;50.448;18.824;2023-12-22T00:28:52;54.33;35.56;80.55;;
67398;Laerm;57728;50.448;18.824;2023-12-22T00:30:53;58.76;35.02;81.54;;
67398;Laerm;57728;50.448;18.824;2023-12-22T00:32:54;47.50;34.93;70.30;;
67398;Laerm;57728;50.448;18.824;2023-12-22T00:34:56;51.66;35.09;74.96;;
67398;Laerm;57728;50.448;18.824;2023-12-22T00:36:59;59.19;34.93;82.76;;
67398;Laerm;57728;50.448;18.824;2023-12-22T00:39:01;54.36;34.84;83.11;;
67398;Laerm;57728;50.448;18.824;2023-12-22T00:41:04;49.94;34.52;76.55;;
67398;Laerm;57728;50.448;18.824;2023-12-22T00:43:05;53.09;34.29;76.81;;
67398;Laerm;57728;50.448;18.824;2023-12-22T00:45:06;54.16;34.57;79.25;;
67398;Laerm;57728;50.448;18.824;2023-12-22T00:47:08;48.28;34.73;77.88;;
67398;Laerm;57728;50.448;18.824;2023-12-22T00:49:10;47.27;34.47;74.14;;
67398;Laerm;57728;50.448;18.824;2023-12-22T00:51:11;53.00;34.23;81.53;;
67398;Laerm;57728;50.448;18.824;2023-12-22T00:53:13;46.89;34.74;71.24;;
67398;Laerm;57728;50.448;18.824;2023-12-22T00:55:14;58.46;34.59;84.29;;
67398;Laerm;57728;50.448;18.824;2023-12-22T00:57:16;55.35;34.15;78.09;;
67398;Laerm;57728;50.448;18.824;2023-12-22T00:59:18;52.75;34.57;77.41;;
67398;Laerm;57728;50.448;18.824;2023-12-22T01:01:19;51.54;34.78;81.37;;
67398;Laerm;57728;50.448;18.824;2023-12-22T01:03:20;47.57;34.65;69.36;;
67398;Laerm;57728;50.448;18.824;2023-12-22T01:05:22;49.45;34.44;73.36;;
67398;Laerm;57728;50.448;18.824;2023-12-22T01:07:23;52.72;34.87;77.06;;
67398;Laerm;57728;50.448;18.824;2023-12-22T01:09:24;59.74;34.96;86.78;;
67398;Laerm;57728;50.448;18.824;2023-12-22T01:11:26;53.70;34.99;78.25;;
67398;Laerm;57728;50.448;18.824;2023-12-22T01:13:27;48.78;34.56;74.82;;
67398;Laerm;57728;50.448;18.824;2023-12-22T01:15:28;50.78;34.65;75.99;;
67398;Laerm;57728;50.448;18.824;2023-12-22T01:17:30;55.26;34.88;83.39;;
67398;Laerm;57728;50.448;18.824;2023-12-22T01:19:31;46.49;34.79;72.43;;
67398;Laerm;57728;50.448;18.824;2023-12-22T01:21:33;52.17;34.50;81.35;;
67398;Laerm;57728;50.448;18.824;2023-12-22T01:23:35;53.55;34.77;80.72;;
67398;Laerm;57728;50.448;18.824;2023-12-22T01:25:36;42.00;34.30;64.93;;
67398;Laerm;57728;50.448;18.824;2023-12-22T01:27:37;49.43;34.52;73.05;;
67398;Laerm;57728;50.448;18.824;2023-12-22T01:29:39;46.34;34.37;71.01;;
67398;Laerm;57728;50.448;18.824;2023-12-22T01:31:41;45.41;34.25;69.05;;
67398;Laerm;57728;50.448;18.824;2023-12-22T01:33:42;46.75;34.27;71.31;;
67398;Laerm;57728;50.448;18.824;2023-12-22T01:35:44;46.53;34.27;71.65;;
67398;Laerm;57728;50.448;18.824;2023-12-22T01:37:45;38.34;34.32;60.77;;
67398;Laerm;57728;50.448;18.824;2023-12-22T01:39:49;48.20;34.51;73.23;;
67398;Laerm;57728;50.448;18.824;2023-12-22T01:41:51;47.83;34.31;72.71;;
67398;Laerm;57728;50.448;18.824;2023-12-22T01:43:52;55.34;34.42;80.65;;
67398;Laerm;57728;50.448;18.824;2023-12-22T01:45:59;52.77;34.59;76.07;;
67398;Laerm;57728;50.448;18.824;2023-12-22T01:48:03;49.11;34.69;68.88;;
67398;Laerm;57728;50.448;18.824;2023-12-22T01:50:06;54.86;34.76;75.90;;
67398;Laerm;57728;50.448;18.824;2023-12-22T01:52:08;47.48;34.68;67.13;;
67398;Laerm;57728;50.448;18.824;2023-12-22T01:54:10;55.46;34.93;81.25;;
67398;Laerm;57728;50.448;18.824;2023-12-22T01:56:14;54.95;35.03;81.62;;
67398;Laerm;57728;50.448;18.824;2023-12-22T01:58:19;46.08;34.73;70.76;;
67398;Laerm;57728;50.448;18.824;2023-12-22T02:00:22;44.79;34.73;73.61;;
67398;Laerm;57728;50.448;18.824;2023-12-22T02:02:24;44.91;34.61;66.79;;
67398;Laerm;57728;50.448;18.824;2023-12-22T02:04:27;54.07;34.92;74.43;;
67398;Laerm;57728;50.448;18.824;2023-12-22T02:06:31;53.95;34.76;80.51;;
67398;Laerm;57728;50.448;18.824;2023-12-22T02:08:34;50.77;35.00;76.11;;
67398;Laerm;57728;50.448;18.824;2023-12-22T02:10:36;51.52;34.92;72.50;;
67398;Laerm;57728;50.448;18.824;2023-12-22T02:12:38;59.24;35.08;80.54;;
67398;Laerm;57728;50.448;18.824;2023-12-22T02:14:40;53.03;34.79;77.79;;
67398;Laerm;57728;50.448;18.824;2023-12-22T02:17:34;56.60;34.96;80.71;;
67398;Laerm;57728;50.448;18.824;2023-12-22T02:19:45;48.33;34.86;73.62;;
67398;Laerm;57728;50.448;18.824;2023-12-22T02:22:07;55.01;35.14;81.57;;
67398;Laerm;57728;50.448;18.824;2023-12-22T02:24:08;57.11;34.68;80.40;;
67398;Laerm;57728;50.448;18.824;2023-12-22T02:26:23;54.00;34.99;78.40;;
67398;Laerm;57728;50.448;18.824;2023-12-22T02:28:26;52.86;34.46;79.61;;
67398;Laerm;57728;50.448;18.824;2023-12-22T02:33:06;50.57;34.66;71.26;;
67398;Laerm;57728;50.448;18.824;2023-12-22T02:35:24;48.54;34.95;71.75;;
67398;Laerm;57728;50.448;18.824;2023-12-22T02:37:30;54.25;34.91;79.67;;
67398;Laerm;57728;50.448;18.824;2023-12-22T02:39:32;56.85;34.80;84.60;;
67398;Laerm;57728;50.448;18.824;2023-12-22T02:41:35;58.99;35.74;83.42;;
67398;Laerm;57728;50.448;18.824;2023-12-22T02:43:37;61.96;34.85;90.72;;
67398;Laerm;57728;50.448;18.824;2023-12-22T02:45:39;50.23;35.06;71.08;;
67398;Laerm;57728;50.448;18.824;2023-12-22T02:47:41;54.99;34.72;77.62;;
67398;Laerm;57728;50.448;18.824;2023-12-22T02:49:43;57.23;35.44;83.24;;
67398;Laerm;57728;50.448;18.824;2023-12-22T02:51:46;55.42;35.40;78.40;;
67398;Laerm;57728;50.448;18.824;2023-12-22T02:53:47;56.18;35.06;79.65;;
67398;Laerm;57728;50.448;18.824;2023-12-22T02:55:49;57.46;34.92;79.80;;
67398;Laerm;57728;50.448;18.824;2023-12-22T02:57:50;49.99;34.97;72.08;;
67398;Laerm;57728;50.448;18.824;2023-12-22T02:59:52;49.30;34.25;73.55;;
67398;Laerm;57728;50.448;18.824;2023-12-22T03:01:53;56.68;34.78;82.50;;
67398;Laerm;57728;50.448;18.824;2023-12-22T03:03:54;54.82;34.47;80.74;;
67398;Laerm;57728;50.448;18.824;2023-12-22T03:05:56;48.13;34.23;73.62;;
67398;Laerm;57728;50.448;18.824;2023-12-22T03:07:57;46.73;34.53;72.11;;
67398;Laerm;57728;50.448;18.824;2023-12-22T03:10:00;49.52;34.40;76.73;;
67398;Laerm;57728;50.448;18.824;2023-12-22T03:12:02;49.21;34.55;77.27;;
67398;Laerm;57728;50.448;18.824;2023-12-22T03:14:03;50.39;34.84;76.67;;
67398;Laerm;57728;50.448;18.824;2023-12-22T03:16:08;58.77;34.60;82.28;;
67398;Laerm;57728;50.448;18.824;2023-12-22T03:18:10;56.87;34.72;81.98;;
67398;Laerm;57728;50.448;18.824;2023-12-22T03:20:12;58.44;35.06;82.40;;
67398;Laerm;57728;50.448;18.824;2023-12-22T03:22:13;45.71;34.55;71.09;;
67398;Laerm;57728;50.448;18.824;2023-12-22T03:24:15;53.36;34.72;79.06;;
67398;Laerm;57728;50.448;18.824;2023-12-22T03:26:16;52.42;35.01;76.26;;
67398;Laerm;57728;50.448;18.824;2023-12-22T03:28:17;54.68;34.65;80.96;;
67398;Laerm;57728;50.448;18.824;2023-12-22T03:30:20;57.12;34.73;79.22;;
67398;Laerm;57728;50.448;18.824;2023-12-22T03:32:21;58.54;34.71;79.42;;
67398;Laerm;57728;50.448;18.824;2023-12-22T03:34:22;45.08;34.42;69.95;;
67398;Laerm;57728;50.448;18.824;2023-12-22T03:36:24;49.69;34.24;73.52;;
67398;Laerm;57728;50.448;18.824;2023-12-22T03:38:25;44.37;34.39;70.81;;
67398;Laerm;57728;50.448;18.824;2023-12-22T03:40:26;47.34;34.46;73.57;;
67398;Laerm;57728;50.448;18.824;2023-12-22T03:42:29;46.06;34.32;70.46;;
67398;Laerm;57728;50.448;18.824;2023-12-22T03:44:31;43.09;34.14;66.76;;
67398;Laerm;57728;50.448;18.824;2023-12-22T03:46:32;42.69;34.14;64.96;;
67398;Laerm;57728;50.448;18.824;2023-12-22T03:48:34;51.70;34.33;77.39;;
67398;Laerm;57728;50.448;18.824;2023-12-22T03:50:35;48.13;34.47;73.38;;
67398;Laerm;57728;50.448;18.824;2023-12-22T03:52:37;40.92;34.36;62.94;;
67398;Laerm;57728;50.448;18.824;2023-12-22T03:54:39;43.63;34.29;65.88;;
67398;Laerm;57728;50.448;18.824;2023-12-22T03:56:40;41.15;34.22;66.46;;
67398;Laerm;57728;50.448;18.824;2023-12-22T03:58:41;47.09;34.36;72.54;;
67398;Laerm;57728;50.448;18.824;2023-12-22T04:00:43;48.62;34.35;76.29;;
67398;Laerm;57728;50.448;18.824;2023-12-22T04:02:44;45.02;34.16;70.25;;
67398;Laerm;57728;50.448;18.824;2023-12-22T04:04:45;53.67;34.43;75.53;;
67398;Laerm;57728;50.448;18.824;2023-12-22T04:06:47;59.98;34.92;83.84;;
67398;Laerm;57728;50.448;18.824;2023-12-22T04:08:48;66.38;36.44;90.85;;
67398;Laerm;57728;50.448;18.824;2023-12-22T04:10:49;68.51;38.72;97.26;;
67398;Laerm;57728;50.448;18.824;2023-12-22T04:12:52;66.78;37.58;90.69;;
67398;Laerm;57728;50.448;18.824;2023-12-22T04:14:53;68.82;37.40;91.66;;
67398;Laerm;57728;50.448;18.824;2023-12-22T04:16:55;62.97;35.70;85.77;;
67398;Laerm;57728;50.448;18.824;2023-12-22T04:18:58;58.00;35.43;82.98;;
67398;Laerm;57728;50.448;18.824;2023-12-22T04:20:59;52.86;34.98;75.10;;
67398;Laerm;57728;50.448;18.824;2023-12-22T04:23:00;43.62;34.55;65.52;;
67398;Laerm;57728;50.448;18.824;2023-12-22T04:25:02;54.05;34.84;81.67;;
67398;Laerm;57728;50.448;18.824;2023-12-22T04:27:03;55.40;34.96;78.83;;
67398;Laerm;57728;50.448;18.824;2023-12-22T04:29:05;63.17;36.07;86.24;;
67398;Laerm;57728;50.448;18.824;2023-12-22T04:31:07;57.68;35.35;80.71;;
67398;Laerm;57728;50.448;18.824;2023-12-22T04:33:08;60.87;35.36;82.45;;
67398;Laerm;57728;50.448;18.824;2023-12-22T04:35:09;62.35;35.38;85.14;;
67398;Laerm;57728;50.448;18.824;2023-12-22T04:37:11;60.99;35.51;84.43;;
67398;Laerm;57728;50.448;18.824;2023-12-22T04:39:12;67.21;35.65;90.98;;
67398;Laerm;57728;50.448;18.824;2023-12-22T04:41:14;67.82;36.19;93.11;;
67398;Laerm;57728;50.448;18.824;2023-12-22T04:43:16;67.65;36.32;89.40;;
67398;Laerm;57728;50.448;18.824;2023-12-22T04:45:17;49.80;35.19;72.05;;
67398;Laerm;57728;50.448;18.824;2023-12-22T04:47:18;64.36;35.04;86.73;;
67398;Laerm;57728;50.448;18.824;2023-12-22T04:49:20;67.27;36.27;86.78;;
67398;Laerm;57728;50.448;18.824;2023-12-22T04:51:21;59.62;36.35;79.07;;
67398;Laerm;57728;50.448;18.824;2023-12-22T04:53:22;57.36;35.36;82.46;;
67398;Laerm;57728;50.448;18.824;2023-12-22T04:55:24;47.98;34.97;72.24;;
67398;Laerm;57728;50.448;18.824;2023-12-22T04:57:25;57.66;34.89;79.61;;
67398;Laerm;57728;50.448;18.824;2023-12-22T04:59:27;52.28;34.89;75.66;;
67398;Laerm;57728;50.448;18.824;2023-12-22T05:01:29;54.04;35.20;75.17;;
67398;Laerm;57728;50.448;18.824;2023-12-22T05:03:30;51.14;34.84;72.71;;
67398;Laerm;57728;50.448;18.824;2023-12-22T05:05:31;52.23;34.98;74.24;;
67398;Laerm;57728;50.448;18.824;2023-12-22T05:07:33;53.12;34.95;76.41;;
67398;Laerm;57728;50.448;18.824;2023-12-22T05:09:36;51.07;34.79;72.72;;
67398;Laerm;57728;50.448;18.824;2023-12-22T05:11:37;52.52;35.01;70.51;;
67398;Laerm;57728;50.448;18.824;2023-12-22T05:13:39;52.46;34.47;75.74;;
67398;Laerm;57728;50.448;18.824;2023-12-22T05:15:42;52.27;34.78;76.13;;
67398;Laerm;57728;50.448;18.824;2023-12-22T05:17:44;50.62;34.94;73.63;;
67398;Laerm;57728;50.448;18.824;2023-12-22T05:19:46;53.99;34.78;84.75;;
67398;Laerm;57728;50.448;18.824;2023-12-22T05:21:48;43.91;34.47;66.29;;
67398;Laerm;57728;50.448;18.824;2023-12-22T05:23:50;49.80;34.74;75.60;;
67398;Laerm;57728;50.448;18.824;2023-12-22T05:25:52;47.42;34.87;71.41;;
67398;Laerm;57728;50.448;18.824;2023-12-22T05:27:53;50.67;34.88;72.87;;
67398;Laerm;57728;50.448;18.824;2023-12-22T05:29:55;50.00;34.73;74.56;;
67398;Laerm;57728;50.448;18.824;2023-12-22T05:31:57;51.01;35.12;69.67;;
67398;Laerm;57728;50.448;18.824;2023-12-22T05:33:58;48.68;34.74;74.00;;
67398;Laerm;57728;50.448;18.824;2023-12-22T05:35:59;46.54;34.99;66.85;;
67398;Laerm;57728;50.448;18.824;2023-12-22T05:38:01;45.84;34.84;71.83;;
67398;Laerm;57728;50.448;18.824;2023-12-22T05:40:03;52.29;34.72;71.12;;
67398;Laerm;57728;50.448;18.824;2023-12-22T05:42:04;47.56;34.87;73.32;;
67398;Laerm;57728;50.448;18.824;2023-12-22T05:44:06;45.82;34.95;72.84;;
67398;Laerm;57728;50.448;18.824;2023-12-22T05:46:07;48.89;35.14;69.84;;
67398;Laerm;57728;50.448;18.824;2023-12-22T05:48:10;56.83;35.18;86.12;;
67398;Laerm;57728;50.448;18.824;2023-12-22T05:50:12;48.92;35.21;69.00;;
67398;Laerm;57728;50.448;18.824;2023-12-22T05:52:13;54.05;34.83;75.88;;
67398;Laerm;57728;50.448;18.824;2023-12-22T05:54:14;45.44;34.59;66.91;;
67398;Laerm;57728;50.448;18.824;2023-12-22T05:56:20;48.40;35.40;69.17;;
67398;Laerm;57728;50.448;18.824;2023-12-22T05:58:21;55.01;34.93;80.18;;
67398;Laerm;57728;50.448;18.824;2023-12-22T06:00:23;52.88;34.96;78.76;;
67398;Laerm;57728;50.448;18.824;2023-12-22T06:02:25;48.12;34.94;70.52;;
67398;Laerm;57728;50.448;18.824;2023-12-22T06:04:27;51.17;34.54;72.55;;
67398;Laerm;57728;50.448;18.824;2023-12-22T06:06:28;52.20;35.12;72.60;;
67398;Laerm;57728;50.448;18.824;2023-12-22T06:08:30;54.41;34.87;77.40;;
67398;Laerm;57728;50.448;18.824;2023-12-22T06:10:31;55.55;34.96;77.10;;
67398;Laerm;57728;50.448;18.824;2023-12-22T06:12:32;53.55;35.44;74.59;;
67398;Laerm;57728;50.448;18.824;2023-12-22T06:14:34;56.36;35.89;79.23;;
67398;Laerm;57728;50.448;18.824;2023-12-22T06:16:36;57.77;35.20;81.77;;
67398;Laerm;57728;50.448;18.824;2023-12-22T06:18:37;56.83;34.86;79.23;;
67398;Laerm;57728;50.448;18.824;2023-12-22T06:20:39;53.36;35.27;76.96;;
67398;Laerm;57728;50.448;18.824;2023-12-22T06:22:40;53.99;35.07;78.26;;
67398;Laerm;57728;50.448;18.824;2023-12-22T06:24:41;54.72;34.99;76.81;;
67398;Laerm;57728;50.448;18.824;2023-12-22T06:26:43;52.86;34.88;78.91;;
67398;Laerm;57728;50.448;18.824;2023-12-22T06:28:44;48.82;35.05;73.36;;
67398;Laerm;57728;50.448;18.824;2023-12-22T06:30:45;51.58;35.00;74.30;;
67398;Laerm;57728;50.448;18.824;2023-12-22T06:32:48;46.72;34.58;68.31;;
67398;Laerm;57728;50.448;18.824;2023-12-22T06:34:55;55.46;34.62;78.75;;
67398;Laerm;57728;50.448;18.824;2023-12-22T06:36:56;53.14;34.74;74.27;;
67398;Laerm;57728;50.448;18.824;2023-12-22T06:38:58;46.40;34.31;71.20;;
67398;Laerm;57728;50.448;18.824;2023-12-22T06:40:59;50.69;35.03;76.78;;
67398;Laerm;57728;50.448;18.824;2023-12-22T06:43:00;53.81;35.01;76.41;;
67398;Laerm;57728;50.448;18.824;2023-12-22T06:45:03;45.30;35.16;67.39;;
67398;Laerm;57728;50.448;18.824;2023-12-22T06:47:04;55.37;35.33;75.68;;
67398;Laerm;57728;50.448;18.824;2023-12-22T06:49:06;54.26;35.44;77.05;;
67398;Laerm;57728;50.448;18.824;2023-12-22T06:51:27;49.81;35.20;73.34;;
67398;Laerm;57728;50.448;18.824;2023-12-22T06:53:29;45.54;35.05;70.31;;
67398;Laerm;57728;50.448;18.824;2023-12-22T06:55:30;51.08;35.25;77.85;;
67398;Laerm;57728;50.448;18.824;2023-12-22T06:57:32;49.91;35.37;72.29;;
67398;Laerm;57728;50.448;18.824;2023-12-22T06:59:33;53.39;35.73;81.18;;
67398;Laerm;57728;50.448;18.824;2023-12-22T07:01:35;50.13;34.94;73.13;;
67398;Laerm;57728;50.448;18.824;2023-12-22T07:03:37;45.46;34.80;67.66;;
67398;Laerm;57728;50.448;18.824;2023-12-22T07:05:39;45.71;35.32;67.01;;
67398;Laerm;57728;50.448;18.824;2023-12-22T07:07:40;46.83;35.07;66.82;;
67398;Laerm;57728;50.448;18.824;2023-12-22T07:09:42;44.36;35.15;65.36;;
67398;Laerm;57728;50.448;18.824;2023-12-22T07:11:51;52.93;35.08;72.72;;
67398;Laerm;57728;50.448;18.824;2023-12-22T07:13:56;48.36;35.08;79.17;;
67398;Laerm;57728;50.448;18.824;2023-12-22T07:15:58;46.17;34.93;64.62;;
67398;Laerm;57728;50.448;18.824;2023-12-22T07:17:59;51.22;35.35;78.90;;
67398;Laerm;57728;50.448;18.824;2023-12-22T07:20:00;46.56;35.13;68.47;;
67398;Laerm;57728;50.448;18.824;2023-12-22T07:22:04;47.91;34.96;73.55;;
67398;Laerm;57728;50.448;18.824;2023-12-22T07:24:07;42.65;34.48;61.96;;
67398;Laerm;57728;50.448;18.824;2023-12-22T07:26:08;45.93;34.69;70.23;;
67398;Laerm;57728;50.448;18.824;2023-12-22T07:28:14;47.28;34.60;72.51;;
67398;Laerm;57728;50.448;18.824;2023-12-22T07:30:16;46.04;34.75;77.81;;
67398;Laerm;57728;50.448;18.824;2023-12-22T07:32:17;51.25;34.78;84.34;;
67398;Laerm;57728;50.448;18.824;2023-12-22T07:34:19;45.48;34.63;69.42;;
67398;Laerm;57728;50.448;18.824;2023-12-22T07:36:23;44.45;33.81;68.48;;
67398;Laerm;57728;50.448;18.824;2023-12-22T07:38:27;47.31;34.65;70.93;;
67398;Laerm;57728;50.448;18.824;2023-12-22T07:40:30;43.74;34.27;66.05;;
67398;Laerm;57728;50.448;18.824;2023-12-22T07:42:31;43.94;34.53;64.73;;
67398;Laerm;57728;50.448;18.824;2023-12-22T07:44:34;45.30;34.28;76.68;;
67398;Laerm;57728;50.448;18.824;2023-12-22T07:46:36;39.89;34.49;58.37;;
67398;Laerm;57728;50.448;18.824;2023-12-22T07:48:37;46.31;34.46;70.40;;
67398;Laerm;57728;50.448;18.824;2023-12-22T07:50:38;44.93;34.70;72.17;;
67398;Laerm;57728;50.448;18.824;2023-12-22T07:52:40;44.03;34.98;65.52;;
67398;Laerm;57728;50.448;18.824;2023-12-22T07:54:41;50.26;34.65;83.24;;
67398;Laerm;57728;50.448;18.824;2023-12-22T07:56:42;43.46;34.80;70.73;;
67398;Laerm;57728;50.448;18.824;2023-12-22T07:58:44;49.96;34.56;74.83;;
67398;Laerm;57728;50.448;18.824;2023-12-22T08:00:45;45.82;35.04;67.51;;
67398;Laerm;57728;50.448;18.824;2023-12-22T08:02:47;49.88;35.49;71.56;;
67398;Laerm;57728;50.448;18.824;2023-12-22T08:04:49;48.67;34.77;81.13;;
67398;Laerm;57728;50.448;18.824;2023-12-22T08:06:51;40.31;34.58;58.48;;
67398;Laerm;57728;50.448;18.824;2023-12-22T08:08:52;46.16;35.05;70.31;;
67398;Laerm;57728;50.448;18.824;2023-12-22T08:10:59;40.43;35.01;60.99;;
67398;Laerm;57728;50.448;18.824;2023-12-22T08:13:00;44.12;34.85;64.47;;
67398;Laerm;57728;50.448;18.824;2023-12-22T08:15:02;43.71;35.04;63.57;;
67398;Laerm;57728;50.448;18.824;2023-12-22T08:17:04;41.77;35.10;60.23;;
67398;Laerm;57728;50.448;18.824;2023-12-22T08:19:05;53.80;35.44;86.79;;
67398;Laerm;57728;50.448;18.824;2023-12-22T08:21:06;53.82;35.86;74.42;;
67398;Laerm;57728;50.448;18.824;2023-12-22T08:23:08;59.17;37.06;83.68;;
67398;Laerm;57728;50.448;18.824;2023-12-22T08:25:09;53.65;35.89;78.22;;
67398;Laerm;57728;50.448;18.824;2023-12-22T08:27:10;54.72;35.61;80.45;;
67398;Laerm;57728;50.448;18.824;2023-12-22T08:29:12;50.87;35.40;81.31;;
67398;Laerm;57728;50.448;18.824;2023-12-22T08:31:13;49.12;35.22;74.13;;
67398;Laerm;57728;50.448;18.824;2023-12-22T08:33:15;48.71;35.79;69.61;;
67398;Laerm;57728;50.448;18.824;2023-12-22T08:35:17;48.27;35.12;78.03;;
67398;Laerm;57728;50.448;18.824;2023-12-22T08:37:19;49.17;35.11;70.46;;
67398;Laerm;57728;50.448;18.824;2023-12-22T08:39:20;47.44;34.79;71.54;;
67398;Laerm;57728;50.448;18.824;2023-12-22T08:41:24;45.50;35.14;72.19;;
67398;Laerm;57728;50.448;18.824;2023-12-22T08:43:25;56.40;35.75;87.21;;
67398;Laerm;57728;50.448;18.824;2023-12-22T08:45:27;50.45;36.01;72.86;;
67398;Laerm;57728;50.448;18.824;2023-12-22T08:47:32;57.96;35.84;92.08;;
67398;Laerm;57728;50.448;18.824;2023-12-22T08:49:33;48.77;35.72;76.72;;
67398;Laerm;57728;50.448;18.824;2023-12-22T08:51:34;45.44;35.83;70.21;;
67398;Laerm;57728;50.448;18.824;2023-12-22T08:53:36;54.76;36.22;85.03;;
67398;Laerm;57728;50.448;18.824;2023-12-22T08:55:38;53.41;35.40;85.90;;
67398;Laerm;57728;50.448;18.824;2023-12-22T08:57:42;48.25;35.47;77.79;;
67398;Laerm;57728;50.448;18.824;2023-12-22T08:59:43;47.97;35.86;71.64;;
67398;Laerm;57728;50.448;18.824;2023-12-22T09:01:45;41.62;35.40;62.86;;
67398;Laerm;57728;50.448;18.824;2023-12-22T09:03:46;45.26;35.65;68.55;;
67398;Laerm;57728;50.448;18.824;2023-12-22T09:05:48;44.91;35.69;69.09;;
67398;Laerm;57728;50.448;18.824;2023-12-22T09:07:49;47.64;35.54;75.40;;
67398;Laerm;57728;50.448;18.824;2023-12-22T09:09:50;46.19;35.76;68.67;;
67398;Laerm;57728;50.448;18.824;2023-12-22T09:11:53;55.81;35.43;89.16;;
67398;Laerm;57728;50.448;18.824;2023-12-22T09:13:54;49.73;36.05;73.87;;
67398;Laerm;57728;50.448;18.824;2023-12-22T09:15:57;48.76;35.63;68.56;;
67398;Laerm;57728;50.448;18.824;2023-12-22T09:17:59;51.81;35.74;79.01;;
67398;Laerm;57728;50.448;18.824;2023-12-22T09:20:01;53.60;35.87;76.44;;
67398;Laerm;57728;50.448;18.824;2023-12-22T09:22:02;55.06;36.00;83.20;;
67398;Laerm;57728;50.448;18.824;2023-12-22T09:24:05;55.54;35.42;83.69;;
67398;Laerm;57728;50.448;18.824;2023-12-22T09:26:06;52.40;36.16;82.98;;
67398;Laerm;57728;50.448;18.824;2023-12-22T09:28:07;50.16;35.84;79.42;;
67398;Laerm;57728;50.448;18.824;2023-12-22T09:30:09;49.43;36.32;68.03;;
67398;Laerm;57728;50.448;18.824;2023-12-22T09:32:12;54.15;36.67;84.87;;
67398;Laerm;57728;50.448;18.824;2023-12-22T09:34:13;50.84;37.12;80.86;;
67398;Laerm;57728;50.448;18.824;2023-12-22T09:36:15;51.32;36.19;81.89;;
67398;Laerm;57728;50.448;18.824;2023-12-22T09:38:16;45.39;36.16;70.54;;
67398;Laerm;57728;50.448;18.824;2023-12-22T09:40:17;57.21;36.06;89.74;;
67398;Laerm;57728;50.448;18.824;2023-12-22T09:42:21;46.18;35.78;65.97;;
67398;Laerm;57728;50.448;18.824;2023-12-22T09:44:22;51.92;35.82;84.23;;
67398;Laerm;57728;50.448;18.824;2023-12-22T09:46:25;63.85;35.90;99.22;;
67398;Laerm;57728;50.448;18.824;2023-12-22T09:48:30;49.79;35.92;73.79;;
67398;Laerm;57728;50.448;18.824;2023-12-22T09:50:33;49.77;36.37;69.75;;
67398;Laerm;57728;50.448;18.824;2023-12-22T09:52:36;62.25;36.01;97.53;;
67398;Laerm;57728;50.448;18.824;2023-12-22T09:54:41;48.79;36.16;78.18;;
67398;Laerm;57728;50.448;18.824;2023-12-22T09:56:44;47.53;36.42;75.72;;
67398;Laerm;57728;50.448;18.824;2023-12-22T09:58:51;47.03;36.31;72.15;;
67398;Laerm;57728;50.448;18.824;2023-12-22T10:00:56;46.70;36.13;67.14;;
67398;Laerm;57728;50.448;18.824;2023-12-22T10:02:57;49.27;36.37;75.38;;
67398;Laerm;57728;50.448;18.824;2023-12-22T10:04:59;44.95;36.17;70.21;;
67398;Laerm;57728;50.448;18.824;2023-12-22T10:07:03;44.43;36.18;73.28;;
67398;Laerm;57728;50.448;18.824;2023-12-22T10:09:06;44.73;35.93;75.09;;
67398;Laerm;57728;50.448;18.824;2023-12-22T10:11:10;43.61;36.00;67.19;;
67398;Laerm;57728;50.448;18.824;2023-12-22T10:13:13;45.62;35.80;65.25;;
67398;Laerm;57728;50.448;18.824;2023-12-22T10:15:16;55.19;36.08;85.72;;
67398;Laerm;57728;50.448;18.824;2023-12-22T10:17:17;47.62;35.92;70.97;;
67398;Laerm;57728;50.448;18.824;2023-12-22T10:19:20;60.51;37.13;82.27;;
67398;Laerm;57728;50.448;18.824;2023-12-22T10:21:21;59.56;36.32;82.67;;
67398;Laerm;57728;50.448;18.824;2023-12-22T10:23:23;47.59;36.05;68.44;;
67398;Laerm;57728;50.448;18.824;2023-12-22T10:25:29;57.30;36.99;79.03;;
67398;Laerm;57728;50.448;18.824;2023-12-22T10:27:31;67.47;37.42;86.94;;
67398;Laerm;57728;50.448;18.824;2023-12-22T10:29:36;63.93;38.28;85.60;;
67398;Laerm;57728;50.448;18.824;2023-12-22T10:31:41;59.03;37.69;80.99;;
67398;Laerm;57728;50.448;18.824;2023-12-22T10:33:43;57.76;36.93;82.57;;
67398;Laerm;57728;50.448;18.824;2023-12-22T10:35:45;57.54;37.05;78.49;;
67398;Laerm;57728;50.448;18.824;2023-12-22T10:37:47;56.98;36.75;80.39;;
67398;Laerm;57728;50.448;18.824;2023-12-22T10:39:55;51.66;35.55;77.44;;
67398;Laerm;57728;50.448;18.824;2023-12-22T10:41:59;52.10;35.93;73.36;;
67398;Laerm;57728;50.448;18.824;2023-12-22T10:44:02;46.83;36.00;71.30;;
67398;Laerm;57728;50.448;18.824;2023-12-22T10:46:04;53.58;36.52;78.00;;
67398;Laerm;57728;50.448;18.824;2023-12-22T10:48:06;49.68;35.92;75.19;;
67398;Laerm;57728;50.448;18.824;2023-12-22T10:50:12;45.81;36.23;71.98;;
67398;Laerm;57728;50.448;18.824;2023-12-22T10:52:19;44.62;35.87;68.85;;
67398;Laerm;57728;50.448;18.824;2023-12-22T10:54:21;50.49;35.41;74.67;;
67398;Laerm;57728;50.448;18.824;2023-12-22T10:56:23;49.49;35.26;74.59;;
67398;Laerm;57728;50.448;18.824;2023-12-22T10:58:28;48.87;35.79;75.73;;
67398;Laerm;57728;50.448;18.824;2023-12-22T11:00:32;45.81;35.83;73.09;;
67398;Laerm;57728;50.448;18.824;2023-12-22T11:02:39;40.28;35.02;61.24;;
67398;Laerm;57728;50.448;18.824;2023-12-22T11:05:07;50.72;36.41;73.01;;
67398;Laerm;57728;50.448;18.824;2023-12-22T11:07:14;48.13;35.97;70.64;;
67398;Laerm;57728;50.448;18.824;2023-12-22T11:09:21;49.00;36.68;67.38;;
67398;Laerm;57728;50.448;18.824;2023-12-22T11:11:33;47.01;36.39;67.31;;
67398;Laerm;57728;50.448;18.824;2023-12-22T11:13:35;56.35;36.09;80.10;;
67398;Laerm;57728;50.448;18.824;2023-12-22T11:15:39;55.99;36.60;84.81;;
67398;Laerm;57728;50.448;18.824;2023-12-22T11:17:42;46.36;36.55;67.04;;